createdAt,value
2018-01-04T00:01:06.032Z,94768.41
2018-01-04T00:03:33.603Z,94768.36
2018-01-04T00:06:01.136Z,94766.16
2018-01-04T00:08:28.717Z,94765.09
2018-01-04T00:10:56.335Z,94758.88
2018-01-04T00:13:23.886Z,94743.52
2018-01-04T00:15:51.464Z,94732.22
2018-01-04T00:18:19.032Z,94739.02
2018-01-04T00:20:46.613Z,94728.02
2018-01-04T00:23:14.537Z,94726.09
2018-01-04T00:25:42.114Z,94718.30
2018-01-04T00:28:09.691Z,94731.59
2018-01-04T00:30:37.264Z,94725.19
2018-01-04T00:33:05.029Z,94734.91
2018-01-04T00:35:32.602Z,94732.06
2018-01-04T00:38:00.171Z,94721.66
2018-01-04T00:40:27.754Z,94751.46
2018-01-04T00:42:55.315Z,94743.66
2018-01-04T00:45:23.164Z,94742.31
2018-01-04T00:47:50.767Z,94731.78
2018-01-04T00:50:18.314Z,94744.23
2018-01-04T00:52:45.916Z,94736.97
2018-01-04T00:55:13.657Z,94741.32
2018-01-04T00:57:41.215Z,94734.80
2018-01-04T01:00:09.027Z,94750.09
2018-01-04T01:02:36.604Z,94748.19
2018-01-04T01:05:04.224Z,94757.87
2018-01-04T01:07:31.889Z,94759.21
2018-01-04T01:09:59.961Z,94754.59
2018-01-04T01:12:27.523Z,94765.02
2018-01-04T01:14:55.093Z,94747.12
2018-01-04T01:17:22.952Z,94755.37
2018-01-04T01:19:50.515Z,94752.11
2018-01-04T01:22:18.080Z,94782.14
2018-01-04T01:24:45.671Z,94783.69
2018-01-04T01:27:13.317Z,94782.22
2018-01-04T01:29:40.872Z,94780.34
2018-01-04T01:32:08.518Z,94766.61
2018-01-04T01:34:36.088Z,94788.41
2018-01-04T01:37:03.782Z,94790.67
2018-01-04T01:39:31.348Z,94791.67
2018-01-04T01:41:58.949Z,94795.36
2018-01-04T01:44:26.491Z,94793.15
2018-01-04T01:46:54.041Z,94803.70
2018-01-04T01:49:21.629Z,94809.40
2018-01-04T01:51:49.190Z,94809.89
2018-01-04T01:54:16.758Z,94796.86
2018-01-04T01:56:44.479Z,94786.77
2018-01-04T01:59:12.420Z,94790.02
2018-01-04T02:01:40.163Z,94798.88
2018-01-04T02:04:07.943Z,94790.56
2018-01-04T02:06:35.503Z,94801.73
2018-01-04T02:09:03.556Z,94791.86
2018-01-04T02:11:31.127Z,94802.01
2018-01-04T02:13:58.708Z,94793.40
2018-01-04T02:16:26.288Z,94788.73
2018-01-04T02:19:05.489Z,94778.16
2018-01-04T02:21:44.785Z,94785.49
2018-01-04T02:24:24.076Z,94793.45
2018-01-04T02:27:03.449Z,94796.34
2018-01-04T02:29:42.688Z,94793.95
2018-01-04T02:32:22.188Z,94803.61
2018-01-04T02:38:03.313Z,94792.61
2018-01-04T02:43:44.668Z,94795.67
2018-01-04T02:46:31.116Z,94787.34
2018-01-04T02:48:58.714Z,94800.05
2018-01-04T02:51:26.299Z,94788.09
2018-01-04T02:53:53.931Z,94789.13
2018-01-04T02:56:21.478Z,94789.48
2018-01-04T02:58:49.017Z,94778.31
2018-01-04T03:01:17.524Z,94772.75
2018-01-04T03:03:46.746Z,94773.61
2018-01-04T03:06:14.649Z,94773.32
2018-01-04T03:08:43.462Z,94771.56
2018-01-04T03:11:11.380Z,94786.13
2018-01-04T03:13:39.001Z,94783.59
2018-01-04T03:16:06.620Z,94773.73
2018-01-04T03:18:34.466Z,94768.23
2018-01-04T03:21:02.021Z,94767.34
2018-01-04T03:23:35.099Z,94770.17
2018-01-04T03:26:08.203Z,94771.31
2018-01-04T03:28:42.697Z,94761.48
2018-01-04T03:31:16.218Z,94777.38
2018-01-04T03:33:49.319Z,94766.03
2018-01-04T03:36:22.458Z,94768.77
2018-01-04T03:38:56.363Z,94772.09
2018-01-04T03:41:29.598Z,94779.78
2018-01-04T03:44:03.095Z,94789.13
2018-01-04T03:46:36.257Z,94783.55
2018-01-04T03:49:09.302Z,94777.62
2018-01-04T03:51:42.329Z,94785.83
2018-01-04T03:54:16.134Z,94801.98
2018-01-04T03:56:49.069Z,94807.15
2018-01-04T03:59:22.040Z,94815.46
2018-01-04T04:01:55.201Z,94810.38
2018-01-04T04:04:28.854Z,94815.70
2018-01-04T04:07:01.949Z,94810.66
2018-01-04T04:09:29.517Z,94811.44
2018-01-04T04:11:57.081Z,94823.83
2018-01-04T04:14:24.650Z,94837.20
2018-01-04T04:16:52.276Z,94837.36
2018-01-04T04:19:19.824Z,94847.28
2018-01-04T04:21:47.375Z,94839.11
2018-01-04T04:24:15.049Z,94848.39
2018-01-04T04:26:42.644Z,94841.30
2018-01-04T04:29:10.939Z,94836.56
2018-01-04T04:31:38.722Z,94847.28
2018-01-04T04:34:06.265Z,94849.47
2018-01-04T04:36:33.832Z,94850.06
2018-01-04T04:39:01.914Z,94859.97
2018-01-04T04:41:29.886Z,94858.47
2018-01-04T04:43:57.441Z,94841.78
2018-01-04T04:46:25.013Z,94859.05
2018-01-04T04:48:52.586Z,94845.50
2018-01-04T04:51:20.136Z,94850.42
2018-01-04T04:53:47.689Z,94850.79
2018-01-04T04:56:15.308Z,94839.08
2018-01-04T04:58:42.905Z,94831.50
2018-01-04T05:01:10.586Z,94840.18
2018-01-04T05:03:38.254Z,94850.30
2018-01-04T05:06:05.798Z,94835.30
2018-01-04T05:08:33.342Z,94834.23
2018-01-04T05:11:00.934Z,94835.08
2018-01-04T05:13:29.652Z,94833.17
2018-01-04T05:15:57.220Z,94847.05
2018-01-04T05:18:24.814Z,94849.02
2018-01-04T05:20:52.370Z,94854.15
2018-01-04T05:23:19.922Z,94860.75
2018-01-04T05:25:47.515Z,94863.55
2018-01-04T05:28:15.162Z,94867.30
2018-01-04T05:30:42.762Z,94870.40
2018-01-04T05:33:10.669Z,94875.90
2018-01-04T05:35:38.248Z,94881.19
2018-01-04T05:38:05.795Z,94880.84
2018-01-04T05:40:33.391Z,94885.00
2018-01-04T05:43:00.948Z,94881.19
2018-01-04T05:45:28.493Z,94890.17
2018-01-04T05:47:56.063Z,94896.30
2018-01-04T05:50:23.598Z,94895.89
2018-01-04T05:52:51.151Z,94892.41
2018-01-04T05:55:18.966Z,94896.02
2018-01-04T05:57:46.532Z,94902.52
2018-01-04T06:00:14.098Z,94896.86
2018-01-04T06:02:41.699Z,94894.96
2018-01-04T06:05:09.622Z,94893.52
2018-01-04T06:07:37.277Z,94893.73
2018-01-04T06:10:04.842Z,94897.72
2018-01-04T06:12:32.415Z,94889.64
2018-01-04T06:14:59.981Z,94891.55
2018-01-04T06:17:27.709Z,94896.16
2018-01-04T06:19:55.285Z,94888.56
2018-01-04T06:22:22.844Z,94897.17
2018-01-04T06:24:50.407Z,94891.36
2018-01-04T06:27:17.952Z,94896.55
2018-01-04T06:29:45.501Z,94893.44
2018-01-04T06:32:13.261Z,94901.50
2018-01-04T06:34:40.825Z,94890.47
2018-01-04T06:37:08.496Z,94888.55
2018-01-04T06:39:37.380Z,94888.28
2018-01-04T06:42:04.935Z,94874.44
2018-01-04T06:44:32.549Z,94875.09
2018-01-04T06:47:00.126Z,94876.64
2018-01-04T06:49:27.835Z,94885.77
2018-01-04T06:51:55.437Z,94891.56
2018-01-04T06:54:23.759Z,94898.15
2018-01-04T06:56:51.320Z,94898.84
2018-01-04T06:59:18.968Z,94912.02
2018-01-04T07:01:46.556Z,94918.22
2018-01-04T07:04:14.153Z,94919.73
2018-01-04T07:06:41.762Z,94930.80
2018-01-04T07:09:10.056Z,94942.61
2018-01-04T07:11:37.654Z,94948.47
2018-01-04T07:14:05.240Z,94946.78
2018-01-04T07:16:32.818Z,94946.21
2018-01-04T07:19:02.007Z,94941.63
2018-01-04T07:21:29.578Z,94940.47
2018-01-04T07:23:59.409Z,94935.19
2018-01-04T07:26:27.069Z,94930.83
2018-01-04T07:28:54.670Z,94929.25
2018-01-04T07:31:22.368Z,94936.66
2018-01-04T07:33:52.215Z,94932.61
2018-01-04T07:36:19.817Z,94930.48
2018-01-04T07:38:50.293Z,94940.06
2018-01-04T07:41:17.833Z,94936.03
2018-01-04T07:43:45.438Z,94925.24
2018-01-04T07:46:12.997Z,94921.53
2018-01-04T07:48:40.537Z,94927.95
2018-01-04T07:51:09.662Z,94926.92
2018-01-04T07:53:37.764Z,94928.88
2018-01-04T07:56:05.331Z,94933.06
2018-01-04T07:58:33.092Z,94939.59
2018-01-04T08:01:00.648Z,94938.40
2018-01-04T08:03:28.181Z,94938.87
2018-01-04T08:05:55.761Z,94937.67
2018-01-04T08:08:23.452Z,94934.28
2018-01-04T08:10:51.615Z,94943.70
2018-01-04T08:13:19.707Z,94949.22
2018-01-04T08:15:47.682Z,94954.77
2018-01-04T08:18:15.323Z,94960.70
2018-01-04T08:20:42.918Z,94954.13
2018-01-04T08:23:10.665Z,94947.57
2018-01-04T08:25:39.844Z,94945.09
2018-01-04T08:28:07.451Z,94940.31
2018-01-04T08:30:35.037Z,94949.04
2018-01-04T08:33:02.616Z,94954.83
2018-01-04T08:35:30.201Z,94935.24
2018-01-04T08:37:57.748Z,94941.79
2018-01-04T08:40:25.415Z,94947.84
2018-01-04T08:42:53.168Z,94953.55
2018-01-04T08:45:21.080Z,94951.19
2018-01-04T08:47:48.685Z,94952.18
2018-01-04T08:50:16.257Z,94948.11
2018-01-04T08:52:43.803Z,94953.16
2018-01-04T08:55:11.950Z,94953.84
2018-01-04T08:57:39.546Z,94956.09
2018-01-04T09:00:07.129Z,94957.03
2018-01-04T09:02:34.765Z,94955.58
2018-01-04T09:05:02.315Z,94960.09
2018-01-04T09:07:30.193Z,94965.89
2018-01-04T09:09:57.838Z,94966.36
2018-01-04T09:12:25.396Z,94971.72
2018-01-04T09:14:52.958Z,94972.66
2018-01-04T09:17:20.555Z,94973.98
2018-01-04T09:19:48.120Z,94976.35
2018-01-04T09:22:15.681Z,94974.61
2018-01-04T09:24:43.264Z,94975.67
2018-01-04T09:27:11.321Z,94972.18
2018-01-04T09:29:38.902Z,94965.21
2018-01-04T09:32:06.473Z,94969.43
2018-01-04T09:34:34.038Z,94977.22
2018-01-04T09:37:01.643Z,94971.63
2018-01-04T09:39:29.273Z,94977.38
2018-01-04T09:41:56.813Z,94983.38
2018-01-04T09:44:24.422Z,94982.52
2018-01-04T09:46:52.015Z,94975.06
2018-01-04T09:49:19.728Z,94970.60
2018-01-04T09:51:47.334Z,94974.82
2018-01-04T09:54:14.997Z,94973.52
2018-01-04T09:56:42.575Z,94959.61
2018-01-04T09:59:10.154Z,94965.84
2018-01-04T10:01:37.766Z,94966.53
2018-01-04T10:04:05.322Z,94972.81
2018-01-04T10:06:32.909Z,94958.24
2018-01-04T10:09:00.465Z,94960.70
2018-01-04T10:11:28.018Z,94949.34
2018-01-04T10:13:55.754Z,94948.51
2018-01-04T10:16:24.429Z,94950.79
2018-01-04T10:18:51.965Z,94953.11
2018-01-04T10:21:19.546Z,94941.22
2018-01-04T10:23:47.105Z,94937.42
2018-01-04T10:26:14.661Z,94932.48
2018-01-04T10:28:42.285Z,94928.64
2018-01-04T10:31:10.436Z,94920.05
2018-01-04T10:33:38.050Z,94918.20
2018-01-04T10:36:05.687Z,94916.73
2018-01-04T10:38:33.244Z,94911.98
2018-01-04T10:41:00.795Z,94903.94
2018-01-04T10:43:28.383Z,94906.45
2018-01-04T10:45:55.945Z,94908.19
2018-01-04T10:48:24.452Z,94916.98
2018-01-04T10:50:52.032Z,94911.75
2018-01-04T10:53:19.617Z,94912.05
2018-01-04T10:55:47.252Z,94910.19
2018-01-04T10:58:14.985Z,94899.66
2018-01-04T11:00:42.583Z,94896.42
2018-01-04T11:03:10.192Z,94896.02
2018-01-04T11:05:37.754Z,94888.28
2018-01-04T11:08:09.190Z,94889.80
2018-01-04T11:10:36.931Z,94886.45
2018-01-04T11:13:04.522Z,94885.00
2018-01-04T11:15:32.089Z,94884.03
2018-01-04T11:17:59.666Z,94875.10
2018-01-04T11:20:27.269Z,94878.20
2018-01-04T11:22:54.834Z,94878.53
2018-01-04T11:25:22.561Z,94884.39
2018-01-04T11:27:50.097Z,94880.32
2018-01-04T11:30:17.641Z,94882.04
2018-01-04T11:32:45.213Z,94873.42
2018-01-04T11:35:13.201Z,94868.33
2018-01-04T11:37:41.696Z,94863.20
2018-01-04T11:40:09.275Z,94854.75
2018-01-04T11:42:37.084Z,94857.06
2018-01-04T11:45:05.108Z,94841.61
2018-01-04T11:47:32.700Z,94847.59
2018-01-04T11:50:00.254Z,94851.53
2018-01-04T11:52:27.832Z,94843.19
2018-01-04T11:54:55.432Z,94836.83
2018-01-04T11:57:23.006Z,94829.73
2018-01-04T11:59:51.225Z,94835.97
2018-01-04T12:02:18.824Z,94826.23
2018-01-04T12:04:46.383Z,94826.33
2018-01-04T12:07:14.533Z,94819.49
2018-01-04T12:09:42.215Z,94824.03
2018-01-04T12:12:09.791Z,94816.25
2018-01-04T12:14:37.356Z,94803.00
2018-01-04T12:17:05.154Z,94802.53
2018-01-04T12:19:34.573Z,94799.84
2018-01-04T12:22:02.257Z,94793.21
2018-01-04T12:24:29.837Z,94796.48
2018-01-04T12:26:57.378Z,94795.55
2018-01-04T12:29:27.892Z,94780.99
2018-01-04T12:31:55.462Z,94775.28
2018-01-04T12:34:24.034Z,94780.11
2018-01-04T12:36:51.622Z,94774.16
2018-01-04T12:39:19.907Z,94765.13
2018-01-04T12:41:47.467Z,94763.85
2018-01-04T12:44:15.265Z,94758.91
2018-01-04T12:46:42.838Z,94747.58
2018-01-04T12:49:11.815Z,94750.72
2018-01-04T12:51:39.398Z,94752.90
2018-01-04T12:54:07.007Z,94745.17
2018-01-04T12:56:34.565Z,94735.48
2018-01-04T12:59:02.151Z,94730.99
2018-01-04T13:01:29.757Z,94719.13
2018-01-04T13:03:57.307Z,94724.48
2018-01-04T13:06:24.894Z,94721.94
2018-01-04T13:08:52.443Z,94713.84
2018-01-04T13:11:19.985Z,94706.48
2018-01-04T13:13:47.543Z,94703.87
2018-01-04T13:16:15.160Z,94701.73
2018-01-04T13:18:42.753Z,94691.80
2018-01-04T13:21:11.197Z,94694.34
2018-01-04T13:23:38.762Z,94690.52
2018-01-04T13:26:06.330Z,94691.66
2018-01-04T13:28:33.922Z,94695.78
2018-01-04T13:31:01.514Z,94681.28
2018-01-04T13:33:29.067Z,94683.91
2018-01-04T13:35:56.656Z,94683.64
2018-01-04T13:38:24.214Z,94676.33
2018-01-04T13:40:51.776Z,94684.23
2018-01-04T13:43:19.738Z,94683.29
2018-01-04T13:45:47.297Z,94688.84
2018-01-04T13:48:14.957Z,94683.70
2018-01-04T13:50:42.626Z,94686.78
2018-01-04T13:53:10.556Z,94681.69
2018-01-04T13:55:38.123Z,94691.47
2018-01-04T13:58:05.940Z,94694.88
2018-01-04T14:00:33.517Z,94694.50
2018-01-04T14:03:01.067Z,94698.78
2018-01-04T14:05:28.663Z,94702.09
2018-01-04T14:07:56.294Z,94693.31
2018-01-04T14:10:23.835Z,94697.66
2018-01-04T14:12:51.394Z,94701.55
2018-01-04T14:15:18.973Z,94702.88
2018-01-04T14:17:46.578Z,94700.38
2018-01-04T14:20:14.175Z,94693.23
2018-01-04T14:22:41.769Z,94693.47
2018-01-04T14:25:09.555Z,94694.97
2018-01-04T14:27:37.177Z,94700.92
2018-01-04T14:30:04.742Z,94701.70
2018-01-04T14:32:32.405Z,94709.11
2018-01-04T14:34:59.983Z,94704.25
2018-01-04T14:37:27.707Z,94701.52
2018-01-04T14:39:55.467Z,94696.07
2018-01-04T14:42:23.755Z,94697.21
2018-01-04T14:44:51.524Z,94703.39
2018-01-04T14:47:19.058Z,94698.38
2018-01-04T14:49:46.637Z,94697.42
2018-01-04T14:52:14.319Z,94693.74
2018-01-04T14:54:41.852Z,94683.70
2018-01-04T14:57:10.145Z,94689.20
2018-01-04T14:59:37.982Z,94695.48
2018-01-04T15:02:07.560Z,94696.02
2018-01-04T15:04:36.353Z,94693.83
2018-01-04T15:07:04.363Z,94683.61
2018-01-04T15:09:33.366Z,94683.34
2018-01-04T15:12:00.993Z,94685.61
2018-01-04T15:14:28.541Z,94690.08
2018-01-04T15:16:57.367Z,94687.62
2018-01-04T15:19:24.960Z,94695.34
2018-01-04T15:21:55.375Z,94693.55
2018-01-04T15:24:23.028Z,94689.67
2018-01-04T15:26:50.642Z,94689.42
2018-01-04T15:29:18.193Z,94680.41
2018-01-04T15:31:45.776Z,94676.60
2018-01-04T15:34:13.788Z,94681.70
2018-01-04T15:36:42.087Z,94679.59
2018-01-04T15:39:10.198Z,94671.54
2018-01-04T15:41:37.837Z,94674.69
2018-01-04T15:44:05.648Z,94666.72
2018-01-04T15:46:33.202Z,94671.16
2018-01-04T15:49:00.768Z,94671.32
2018-01-04T15:51:28.368Z,94672.52
2018-01-04T15:53:56.025Z,94682.44
2018-01-04T15:56:23.586Z,94682.03
2018-01-04T15:58:51.170Z,94678.23
2018-01-04T16:01:19.946Z,94686.56
2018-01-04T16:03:47.739Z,94679.05
2018-01-04T16:06:15.516Z,94684.58
2018-01-04T16:08:43.134Z,94691.89
2018-01-04T16:11:11.398Z,94683.61
2018-01-04T16:13:39.801Z,94677.95
2018-01-04T16:16:07.418Z,94681.48
2018-01-04T16:18:34.968Z,94676.25
2018-01-04T16:21:02.577Z,94674.11
2018-01-04T16:23:31.025Z,94670.00
2018-01-04T16:25:58.694Z,94669.72
2018-01-04T16:28:26.482Z,94658.83
2018-01-04T16:30:54.138Z,94664.84
2018-01-04T16:33:21.933Z,94663.05
2018-01-04T16:35:49.712Z,94661.30
2018-01-04T16:38:18.110Z,94657.34
2018-01-04T16:40:47.756Z,94658.02
2018-01-04T16:43:15.397Z,94654.21
2018-01-04T16:45:44.223Z,94649.78
2018-01-04T16:48:11.773Z,94652.03
2018-01-04T16:50:39.351Z,94641.62
2018-01-04T16:53:07.278Z,94645.67
2018-01-04T16:55:34.985Z,94641.34
2018-01-04T16:58:02.544Z,94650.67
2018-01-04T17:00:30.191Z,94644.08
2018-01-04T17:02:57.938Z,94643.37
2018-01-04T17:05:25.545Z,94640.33
2018-01-04T17:07:53.617Z,94637.71
2018-01-04T17:10:21.261Z,94639.56
2018-01-04T17:12:48.839Z,94643.76
2018-01-04T17:15:16.423Z,94637.64
2018-01-04T17:17:44.478Z,94642.59
2018-01-04T17:20:12.115Z,94641.20
2018-01-04T17:22:39.688Z,94635.61
2018-01-04T17:25:07.374Z,94628.21
2018-01-04T17:27:34.930Z,94625.70
2018-01-04T17:30:02.494Z,94621.61
2018-01-04T17:32:30.081Z,94623.54
2018-01-04T17:34:57.635Z,94613.73
2018-01-04T17:37:26.014Z,94622.20
2018-01-04T17:39:53.635Z,94627.13
2018-01-04T17:42:21.243Z,94620.67
2018-01-04T17:44:48.833Z,94621.01
2018-01-04T17:47:16.398Z,94621.36
2018-01-04T17:49:44.015Z,94621.69
2018-01-04T17:52:12.002Z,94619.96
2018-01-04T17:54:39.580Z,94619.53
2018-01-04T17:57:08.153Z,94616.56
2018-01-04T17:59:35.854Z,94611.89
2018-01-04T18:02:03.437Z,94607.69
2018-01-04T18:04:31.012Z,94611.20
2018-01-04T18:06:58.605Z,94605.25
2018-01-04T18:09:27.404Z,94603.40
2018-01-04T18:11:55.056Z,94599.17
2018-01-04T18:14:23.804Z,94596.40
2018-01-04T18:16:51.462Z,94601.60
2018-01-04T18:19:20.021Z,94596.02
2018-01-04T18:21:47.685Z,94593.00
2018-01-04T18:24:15.273Z,94596.58
2018-01-04T18:26:42.841Z,94593.55
2018-01-04T18:29:10.905Z,94594.93
2018-01-04T18:31:38.513Z,94594.38
2018-01-04T18:34:06.125Z,94588.07
2018-01-04T18:36:33.683Z,94582.28
2018-01-04T18:39:01.301Z,94575.45
2018-01-04T18:41:28.842Z,94580.71
2018-01-04T18:43:56.390Z,94572.81
2018-01-04T18:46:24.040Z,94577.36
2018-01-04T18:48:51.599Z,94572.28
2018-01-04T18:51:19.634Z,94564.16
2018-01-04T18:53:47.216Z,94559.39
2018-01-04T18:56:14.830Z,94566.63
2018-01-04T18:58:42.390Z,94559.67
2018-01-04T19:01:09.984Z,94562.12
2018-01-04T19:03:38.531Z,94559.39
2018-01-04T19:06:06.105Z,94560.86
2018-01-04T19:08:34.044Z,94565.19
2018-01-04T19:11:10.386Z,94562.03
2018-01-04T19:13:38.103Z,94563.17
2018-01-04T19:16:05.701Z,94555.73
2018-01-04T19:18:33.342Z,94552.03
2018-01-04T19:21:00.951Z,94546.05
2018-01-04T19:23:28.837Z,94549.13
2018-01-04T19:25:56.464Z,94538.35
2018-01-04T19:28:24.037Z,94537.59
2018-01-04T19:30:52.127Z,94524.81
2018-01-04T19:33:21.917Z,94526.58
2018-01-04T19:35:49.662Z,94521.45
2018-01-04T19:38:17.244Z,94520.57
2018-01-04T19:40:44.827Z,94531.02
2018-01-04T19:43:12.477Z,94536.42
2018-01-04T19:45:40.052Z,94541.55
2018-01-04T19:48:07.607Z,94546.42
2018-01-04T19:50:35.248Z,94547.39
2018-01-04T19:53:04.240Z,94542.18
2018-01-04T19:55:31.797Z,94545.56
2018-01-04T19:57:59.372Z,94534.34
2018-01-04T20:00:26.939Z,94537.97
2018-01-04T20:02:54.516Z,94536.45
2018-01-04T20:05:22.139Z,94536.98
2018-01-04T20:07:49.789Z,94529.19
2018-01-04T20:10:19.288Z,94526.67
2018-01-04T20:12:46.900Z,94520.03
2018-01-04T20:15:14.458Z,94520.20
2018-01-04T20:17:42.042Z,94525.86
2018-01-04T20:20:09.651Z,94520.08
2018-01-04T20:22:37.214Z,94514.03
2018-01-04T20:25:04.845Z,94514.41
2018-01-04T20:27:32.505Z,94510.14
2018-01-04T20:30:00.481Z,94511.59
2018-01-04T20:32:28.046Z,94497.30
2018-01-04T20:34:55.609Z,94499.08
2018-01-04T20:37:23.628Z,94502.39
2018-01-04T20:39:51.225Z,94505.13
2018-01-04T20:42:18.798Z,94500.86
2018-01-04T20:44:46.378Z,94503.64
2018-01-04T20:47:13.943Z,94495.97
2018-01-04T20:49:41.504Z,94481.27
2018-01-04T20:52:09.115Z,94475.54
2018-01-04T20:54:36.672Z,94483.17
2018-01-04T20:57:04.237Z,94483.02
2018-01-04T20:59:31.828Z,94480.27
2018-01-04T21:01:59.409Z,94478.47
2018-01-04T21:04:27.004Z,94474.75
2018-01-04T21:06:54.550Z,94467.70
2018-01-04T21:09:22.891Z,94459.48
2018-01-04T21:11:50.451Z,94466.16
2018-01-04T21:14:18.048Z,94465.78
2018-01-04T21:16:45.632Z,94467.33
2018-01-04T21:19:13.361Z,94472.94
2018-01-04T21:21:40.913Z,94470.34
2018-01-04T21:24:08.525Z,94477.45
2018-01-04T21:26:36.079Z,94474.15
2018-01-04T21:29:03.646Z,94483.69
2018-01-04T21:31:31.254Z,94476.09
2018-01-04T21:33:58.819Z,94472.16
2018-01-04T21:36:26.357Z,94477.70
2018-01-04T21:38:54.135Z,94476.17
2018-01-04T21:41:21.677Z,94480.15
2018-01-04T21:43:49.224Z,94482.81
2018-01-04T21:46:17.014Z,94492.25
2018-01-04T21:48:44.568Z,94493.52
2018-01-04T21:51:12.383Z,94496.91
2018-01-04T21:53:40.049Z,94504.42
2018-01-04T21:56:07.587Z,94492.28
2018-01-04T21:58:35.153Z,94494.70
2018-01-04T22:01:02.743Z,94492.55
2018-01-04T22:03:30.314Z,94491.33
2018-01-04T22:05:57.874Z,94486.55
2018-01-04T22:08:25.473Z,94481.59
2018-01-04T22:10:53.108Z,94477.91
2018-01-04T22:13:21.203Z,94485.92
2018-01-04T22:15:48.851Z,94484.66
2018-01-04T22:18:16.430Z,94484.64
2018-01-04T22:20:44.013Z,94483.74
2018-01-04T22:23:12.454Z,94479.76
2018-01-04T22:25:40.129Z,94480.75
2018-01-04T22:28:07.805Z,94485.50
2018-01-04T22:30:35.361Z,94477.48
2018-01-04T22:33:02.928Z,94481.54
2018-01-04T22:35:30.659Z,94477.68
2018-01-04T22:37:58.241Z,94473.56
2018-01-04T22:40:25.946Z,94473.66
2018-01-04T22:42:53.584Z,94474.95
2018-01-04T22:45:21.785Z,94472.71
2018-01-04T22:47:49.393Z,94457.02
2018-01-04T22:50:17.002Z,94452.94
2018-01-04T22:52:44.628Z,94442.17
2018-01-04T22:55:12.714Z,94440.23
2018-01-04T22:57:40.283Z,94433.39
2018-01-04T23:00:07.925Z,94436.16
2018-01-04T23:02:35.512Z,94429.59
2018-01-04T23:05:03.082Z,94426.80
2018-01-04T23:07:30.669Z,94430.81
2018-01-04T23:09:58.244Z,94425.00
2018-01-04T23:12:25.828Z,94422.03
2018-01-04T23:14:58.252Z,94417.51
2018-01-04T23:17:26.868Z,94430.16
2018-01-04T23:19:54.472Z,94437.80
2018-01-04T23:22:22.097Z,94428.48
2018-01-04T23:24:49.676Z,94424.43
2018-01-04T23:27:17.280Z,94419.42
2018-01-04T23:29:44.903Z,94422.56
2018-01-04T23:32:12.468Z,94424.08
2018-01-04T23:34:40.032Z,94426.41
2018-01-04T23:37:07.832Z,94429.98
2018-01-04T23:39:35.385Z,94436.31
2018-01-04T23:42:02.941Z,94428.46
2018-01-04T23:44:30.517Z,94412.78
2018-01-04T23:47:01.052Z,94409.91
2018-01-04T23:49:28.733Z,94398.49
2018-01-04T23:51:56.334Z,94402.06
2018-01-04T23:54:24.104Z,94391.00
2018-01-04T23:56:51.712Z,94399.19
2018-01-04T23:59:19.261Z,94404.67
